DW9692 Weather Reports


Display with metric or nautical units.
time (UTC)temp
F
wind
direction
speed
MPH
gust
MPH
rain 1hr
in
rain 24hr
in
rain mn
in
humidity
%
barometer
mb
20181120211549 34 0 0.0 3.0 0.04 0.05 0.05 48 1010.2
20181120210649 34 67 0.0 11.0 0.04 0.05 0.05 48 1010.3
20181120205749 34 90 0.0 11.0 0.04 0.04 0.04 48 1010.2
20181120204849 34 99 0.0 2.0 0.04 0.04 0.04 48 1010.3
20181120203949 34 0 0.0 2.0 0.02 0.02 0.02 48 1010.2
20181120203049 34 0 0.0 2.0 0.02 0.02 0.02 48 1010.2
20181120202149 34 0 0.0 2.0 0.01 0.01 0.01 47 1010.3
20181120201249 34 0 0.0 2.0 0.01 0.01 0.01 47 1010.5
20181120200349 34 0 0.0 1.0 0.01 0.01 0.01 47 1010.6
20181120195450 34 0 0.0 1.0 0.00 0.00 0.00 47 1010.6
20181120194549 34 0 0.0 1.0 0.00 0.00 0.00 46 1010.6
20181120193649 34 0 0.0 1.0 0.00 0.00 0.00 46 1010.5
20181120192749 34 0 0.0 2.0 0.00 0.00 0.00 46 1010.4
20181120191849 34 0 0.0 2.0 0.00 0.00 0.00 46 1010.3
20181120190949 35 0 0.0 2.0 0.00 0.00 0.00 46 1010.4
20181120190049 35 0 0.0 2.0 0.00 0.00 0.00 46 1010.6
20181120185149 35 0 0.0 1.0 0.00 0.00 0.00 45 1010.4
20181120184249 35 0 0.0 2.0 0.00 0.00 0.00 45 1010.4
20181120183349 35 0 0.0 2.0 0.00 0.00 0.00 45 1010.3
20181120182449 35 0 0.0 2.0 0.00 0.00 0.00 45 1010.5
20181120181549 35 0 0.0 1.0 0.00 0.00 0.00 44 1010.4
20181120180649 35 0 0.0 2.0 0.00 0.00 0.00 44 1010.3
20181120175749 35 0 0.0 2.0 0.00 0.00 0.00 43 1010.3
20181120174849 35 0 0.0 2.0 0.00 0.00 0.00 43 1010.4
20181120173949 35 0 0.0 1.0 0.00 0.00 0.00 42 1010.4
20181120173049 35 0 0.0 1.0 0.00 0.00 0.00 42 1010.4
20181120172149 35 0 0.0 1.0 0.00 0.00 0.00 42 1010.6
20181120171249 35 0 0.0 2.0 0.00 0.00 0.00 42 1010.4
20181120170349 35 0 0.0 2.0 0.00 0.00 0.00 42 1010.4
20181120165449 35 0 0.0 1.0 0.00 0.00 0.00 43 1010.4
20181120164549 35 0 0.0 2.0 0.00 0.00 0.00 43 1010.3
20181120163649 35 0 0.0 0.0 0.00 0.00 0.00 42 1010.3
20181120162749 36 0 0.0 1.0 0.00 0.00 0.00 41 1010.4
20181120161849 35 0 0.0 2.0 0.00 0.00 0.00 43 1010.4
20181120160949 36 0 0.0 2.0 0.00 0.00 0.00 42 1010.2
20181120160049 36 0 0.0 2.0 0.00 0.00 0.00 42 1010.2
20181120155149 36 0 0.0 2.0 0.00 0.00 0.00 42 1009.9
20181120154249 36 0 0.0 2.0 0.00 0.00 0.00 42 1009.8
20181120153349 36 0 0.0 2.0 0.00 0.00 0.00 42 1009.7
20181120152449 36 0 0.0 1.0 0.00 0.00 0.00 42 1009.7
20181120151549 36 0 0.0 2.0 0.00 0.00 0.00 43 1009.8
20181120150649 36 0 0.0 2.0 0.00 0.00 0.00 43 1009.9
20181120145749 36 0 0.0 1.0 0.00 0.00 0.00 44 1010.3
20181120144849 36 0 0.0 0.0 0.00 0.00 0.00 45 1010.4
20181120143950 36 0 0.0 0.0 0.00 0.00 0.00 45 1010.4
20181120143049 36 0 0.0 0.0 0.00 0.00 0.00 45 1010.6
20181120142149 36 0 0.0 0.0 0.00 0.00 0.00 45 1010.7
20181120141249 36 0 0.0 0.0 0.00 0.00 0.00 45 1010.7
20181120140349 36 0 0.0 0.0 0.00 0.00 0.00 45 1010.8
20181120135449 36 0 0.0 0.0 0.00 0.00 0.00 44 1010.6
20181120134549 36 0 0.0 0.0 0.00 0.00 0.00 44 1010.6
20181120133649 36 0 0.0 0.0 0.00 0.00 0.00 44 1010.7
20181120132749 36 0 0.0 0.0 0.00 0.00 0.00 44 1010.8
20181120131849 36 0 0.0 0.0 0.00 0.00 0.00 44 1010.9
20181120130949 36 0 0.0 0.0 0.00 0.01 0.00 44 1010.9
20181120130049 36 0 0.0 0.0 0.00 0.01 0.00 44 1010.8
20181120125149 36 0 0.0 0.0 0.00 0.02 0.00 44 1010.8
20181120124249 36 0 0.0 0.0 0.00 0.02 0.00 44 1010.9
20181120123349 36 0 0.0 0.0 0.00 0.04 0.00 44 1010.8
20181120122449 36 0 0.0 0.0 0.00 0.05 0.00 43 1010.7
20181120121549 36 0 0.0 0.0 0.00 0.05 0.00 43 1010.8
20181120120649 36 0 0.0 0.0 0.00 0.06 0.00 44 1010.8
20181120115749 35 0 0.0 0.0 0.00 0.08 0.00 44 1010.7
20181120114849 35 0 0.0 1.0 0.00 0.09 0.00 44 1010.5
20181120113949 35 0 0.0 1.0 0.00 0.11 0.00 43 1010.3
20181120113049 35 0 0.0 1.0 0.00 0.12 0.00 44 1010.2
20181120112149 35 0 0.0 0.0 0.00 0.14 0.00 46 1010.0
20181120111249 35 0 0.0 0.0 0.00 0.17 0.00 47 1010.1
20181120110349 34 0 0.0 0.0 0.00 0.18 0.00 48 1009.8
20181120105449 34 0 0.0 0.0 0.00 0.19 0.00 48 1009.8
20181120104549 34 0 0.0 2.0 0.00 0.20 0.00 49 1009.6
20181120103649 34 0 0.0 2.0 0.00 0.22 0.00 50 1009.4
20181120102749 34 72 0.0 2.0 0.00 0.25 0.00 52 1009.4
20181120101849 34 0 0.0 2.0 0.00 0.26 0.00 53 1009.5
20181120100949 34 0 0.0 1.0 0.00 0.27 0.00 54 1009.8
20181120100049 34 0 0.0 1.0 0.00 0.28 0.00 58 1010.0
20181120095149 33 0 0.0 2.0 0.00 0.31 0.00 64 1010.5
20181120094249 33 0 0.0 2.0 0.00 0.31 0.00 66 1010.8
20181120093349 33 0 0.0 2.0 0.00 0.32 0.00 68 1011.2
20181120092449 33 0 0.0 2.0 0.00 0.33 0.00 69 1011.6
20181120091549 33 0 0.0 1.0 0.00 0.34 0.00 69 1011.6
20181120090649 33 0 0.0 2.0 0.00 0.34 0.00 70 1011.7
20181120085749 33 0 0.0 1.0 0.00 0.34 0.00 70 1011.6
20181120084849 33 0 0.0 1.0 0.00 0.34 0.00 71 1011.6
20181120083949 34 0 0.0 0.0 0.00 0.34 0.00 70 1011.7
20181120083049 33 0 0.0 2.0 0.00 0.34 0.00 70 1011.7
20181120082149 33 0 0.0 1.0 0.00 0.34 0.00 70 1011.6
20181120081249 33 0 0.0 1.0 0.00 0.34 0.00 70 1011.4
20181120080349 33 0 0.0 2.0 0.00 0.34 0.00 69 1011.5
20181120075450 33 0 0.0 2.0 0.00 0.34 0.00 69 1011.5
20181120074549 33 0 0.0 1.0 0.00 0.34 0.00 68 1011.6
20181120073649 33 0 0.0 0.0 0.00 0.34 0.00 68 1011.5
20181120072749 33 0 0.0 2.0 0.00 0.34 0.00 67 1011.3
20181120071849 32 0 0.0 2.0 0.00 0.34 0.00 66 1011.5
20181120070949 32 0 0.0 2.0 0.00 0.34 0.00 66 1011.6
20181120070049 32 0 0.0 2.0 0.00 0.34 0.00 65 1011.7
20181120065149 32 0 0.0 0.0 0.00 0.34 0.00 65 1011.7
20181120064249 32 0 0.0 1.0 0.00 0.34 0.00 65 1011.9
20181120063349 32 0 0.0 1.0 0.00 0.34 0.00 65 1011.8
20181120062449 32 0 0.0 2.0 0.00 0.34 0.00 65 1011.6
20181120061550 32 70 0.0 4.0 0.00 0.34 0.00 64 1011.7
20181120060649 32 0 0.0 0.0 0.00 0.34 0.00 64 1011.3
20181120055749 32 0 0.0 0.0 0.00 0.34 0.00 64 1011.0
20181120054849 32 0 0.0 0.0 0.00 0.34 0.00 64 1011.1
20181120053949 32 0 0.0 0.0 0.00 0.34 0.00 64 1011.1
20181120053049 32 0 0.0 0.0 0.00 0.34 0.00 65 1011.2
20181120052149 32 0 0.0 0.0 0.00 0.34 0.00 65 1011.2
20181120051249 32 0 0.0 0.0 0.00 0.34 0.00 64 1011.0
20181120050349 32 0 0.0 0.0 0.00 0.34 0.00 64 1011.1
20181120045449 32 0 0.0 0.0 0.00 0.34 0.00 64 1010.9
20181120044549 31 0 0.0 0.0 0.00 0.34 0.00 64 1010.9
20181120043649 31 0 0.0 0.0 0.00 0.34 0.00 64 1010.9
20181120042749 31 0 0.0 0.0 0.00 0.34 0.00 64 1010.9
20181120041850 31 0 0.0 0.0 0.00 0.34 0.00 64 1011.1
20181120040949 31 0 0.0 0.0 0.00 0.34 0.00 64 1011.0
20181120040049 31 0 0.0 0.0 0.00 0.34 0.00 64 1010.9
20181120035149 31 0 0.0 0.0 0.00 0.34 0.00 64 1010.7
20181120034249 31 0 0.0 0.0 0.00 0.34 0.00 64 1010.5
20181120033349 31 0 0.0 0.0 0.00 0.34 0.00 64 1010.7
20181120032449 31 0 0.0 0.0 0.00 0.34 0.00 64 1010.5
20181120031549 31 0 0.0 0.0 0.00 0.34 0.00 63 1010.9
20181120030649 31 0 0.0 0.0 0.00 0.34 0.00 63 1011.1
20181120025749 31 0 0.0 0.0 0.00 0.34 0.00 63 1011.1
20181120024849 30 0 0.0 0.0 0.00 0.34 0.00 62 1010.7
20181120023949 30 0 0.0 0.0 0.00 0.34 0.00 62 1010.4
20181120023049 30 0 0.0 0.0 0.00 0.34 0.00 62 1010.7
20181120022149 30 0 0.0 0.0 0.00 0.34 0.00 62 1010.8
20181120021249 30 0 0.0 0.0 0.00 0.34 0.00 62 1010.7
20181120020349 30 0 0.0 0.0 0.00 0.34 0.00 61 1010.5
20181120015449 30 0 0.0 0.0 0.00 0.34 0.00 62 1010.4
20181120014549 30 0 0.0 1.0 0.00 0.34 0.00 61 1010.5
20181120013649 30 0 0.0 1.0 0.00 0.34 0.00 61 1010.4
20181120012749 30 0 0.0 1.0 0.00 0.34 0.00 61 1010.4
20181120011849 30 0 0.0 0.0 0.00 0.34 0.00 61 1010.3
20181120010949 30 0 0.0 0.0 0.00 0.34 0.00 61 1010.3
20181120010049 30 0 0.0 0.0 0.00 0.34 0.00 60 1010.2
20181120005149 30 0 0.0 0.0 0.00 0.34 0.00 60 1010.1
20181120004249 30 0 0.0 0.0 0.00 0.34 0.00 60 1009.9
20181120003349 29 0 0.0 0.0 0.00 0.34 0.00 59 1010.1
20181120002449 29 0 0.0 0.0 0.00 0.34 0.00 59 1009.9
20181120001549 29 0 0.0 0.0 0.00 0.34 0.00 58 1010.0
20181120000650 29 0 0.0 0.0 0.00 0.34 0.00 58 1010.1
20181119235749 30 0 0.0 0.0 0.00 0.34 0.00 58 1010.2
20181119234849 29 0 0.0 0.0 0.00 0.34 0.00 57 1010.1
20181119233949 30 0 0.0 0.0 0.00 0.34 0.00 57 1010.1
20181119233049 30 0 0.0 0.0 0.00 0.34 0.00 56 1010.1
20181119232149 30 0 0.0 0.0 0.00 0.34 0.00 56 1010.0
20181119231249 30 0 0.0 1.0 0.00 0.34 0.00 56 1009.8
20181119230349 30 0 0.0 1.0 0.00 0.34 0.00 55 1009.9
20181119225449 30 0 0.0 2.0 0.00 0.34 0.00 55 1009.8
20181119224549 30 0 0.0 1.0 0.00 0.34 0.00 54 1009.7
20181119223649 30 0 0.0 1.0 0.00 0.34 0.00 54 1009.8
20181119222750 30 0 0.0 1.0 0.00 0.34 0.00 54 1009.7
20181119221849 31 0 0.0 1.0 0.00 0.34 0.00 53 1009.6
20181119220949 30 0 0.0 2.0 0.00 0.34 0.00 52 1009.4
20181119220049 30 0 0.0 1.0 0.00 0.34 0.00 52 1009.3
20181119215149 30 0 0.0 1.0 0.00 0.34 0.34 52 1009.1
20181119214249 31 0 0.0 2.0 0.00 0.34 0.34 51 1009.0
20181119213349 31 0 0.0 1.0 0.00 0.34 0.34 51 1008.9
20181119212449 31 0 0.0 0.0 0.00 0.34 0.34 51 1008.7